createdAt,value
2019-02-10T00:01:15.674Z,1.67
2019-02-10T00:03:44.987Z,1.43
2019-02-10T00:06:14.035Z,1.80
2019-02-10T00:08:43.058Z,1.37
2019-02-10T00:11:12.125Z,1.70
2019-02-10T00:13:41.157Z,1.60
2019-02-10T00:16:21.658Z,1.63
2019-02-10T00:18:50.698Z,1.67
2019-02-10T00:21:19.678Z,1.73
2019-02-10T00:23:48.796Z,1.67
2019-02-10T00:26:17.760Z,1.60
2019-02-10T00:28:46.793Z,1.63
2019-02-10T00:31:15.966Z,1.43
2019-02-10T00:33:45.007Z,1.33
2019-02-10T00:36:14.054Z,1.43
2019-02-10T00:38:43.413Z,1.40
2019-02-10T00:41:12.482Z,1.60
2019-02-10T00:43:41.442Z,1.13
2019-02-10T00:46:11.350Z,1.93
2019-02-10T00:48:40.326Z,1.50
2019-02-10T00:51:09.300Z,1.97
2019-02-10T00:53:38.490Z,1.60
2019-02-10T00:56:07.553Z,1.70
2019-02-10T00:58:36.586Z,1.27
2019-02-10T01:01:05.978Z,1.40
2019-02-10T01:03:35.424Z,2.03
2019-02-10T01:06:04.371Z,1.30
2019-02-10T01:08:33.422Z,1.23
2019-02-10T01:11:02.467Z,1.60
2019-02-10T01:13:31.515Z,2.67
2019-02-10T01:16:01.154Z,1.70
2019-02-10T01:18:30.195Z,1.20
2019-02-10T01:20:59.150Z,1.97
2019-02-10T01:23:28.195Z,2.83
2019-02-10T01:25:57.234Z,1.33
2019-02-10T01:28:26.204Z,1.50
2019-02-10T01:30:55.271Z,1.63
2019-02-10T01:33:24.324Z,1.80
2019-02-10T01:35:53.286Z,1.37
2019-02-10T01:38:22.294Z,1.40
2019-02-10T01:40:51.338Z,1.70
2019-02-10T01:43:20.382Z,1.30
2019-02-10T01:45:49.926Z,2.00
2019-02-10T01:48:18.990Z,1.63
2019-02-10T01:50:48.029Z,1.67
2019-02-10T01:53:17.019Z,1.27
2019-02-10T01:55:45.997Z,1.73
2019-02-10T01:58:15.034Z,1.30
2019-02-10T02:00:44.861Z,1.87
2019-02-10T02:03:14.481Z,1.77
2019-02-10T02:05:43.612Z,1.37
2019-02-10T02:08:12.663Z,1.40
2019-02-10T02:10:41.698Z,1.87
2019-02-10T02:13:10.749Z,1.57
2019-02-10T02:15:40.103Z,2.10
2019-02-10T02:18:09.182Z,2.03
2019-02-10T02:20:38.141Z,1.80
2019-02-10T02:23:07.195Z,1.40
2019-02-10T02:25:36.239Z,1.53
2019-02-10T02:28:05.293Z,1.40
2019-02-10T02:30:34.353Z,1.30
2019-02-10T02:33:03.399Z,1.50
2019-02-10T02:35:32.455Z,1.70
2019-02-10T02:38:01.914Z,1.60
2019-02-10T02:40:31.029Z,1.40
2019-02-10T02:43:00.059Z,1.60
2019-02-10T02:45:30.401Z,1.53
2019-02-10T02:47:59.385Z,1.67
2019-02-10T02:50:28.430Z,1.97
2019-02-10T02:52:57.512Z,1.50
2019-02-10T02:55:26.592Z,1.40
2019-02-10T02:57:55.654Z,1.20
2019-02-10T03:00:25.279Z,1.20
2019-02-10T03:02:54.756Z,1.57
2019-02-10T03:05:23.925Z,1.80
2019-02-10T03:07:53.187Z,1.50
2019-02-10T03:10:22.249Z,1.10
2019-02-10T03:12:51.333Z,1.40
2019-02-10T03:15:20.523Z,1.63
2019-02-10T03:17:49.592Z,1.37
2019-02-10T03:20:18.680Z,1.30
2019-02-10T03:22:47.759Z,1.30
2019-02-10T03:25:16.804Z,1.60
2019-02-10T03:27:45.912Z,1.57
2019-02-10T03:30:15.427Z,1.57
2019-02-10T03:32:44.514Z,1.53
2019-02-10T03:35:13.652Z,1.20
2019-02-10T03:37:43.024Z,1.00
2019-02-10T03:40:12.138Z,1.53
2019-02-10T03:42:41.395Z,1.10
2019-02-10T03:45:10.646Z,1.53
2019-02-10T03:47:39.717Z,1.40
2019-02-10T03:50:08.722Z,1.20
2019-02-10T03:52:37.930Z,1.20
2019-02-10T03:55:07.023Z,1.40
2019-02-10T03:57:36.098Z,1.10
2019-02-10T04:00:05.490Z,1.53
2019-02-10T04:02:34.674Z,1.60
2019-02-10T04:05:03.846Z,1.30
2019-02-10T04:07:36.112Z,1.37
2019-02-10T04:10:03.778Z,1.40
2019-02-10T04:12:32.841Z,1.40
2019-02-10T04:15:01.934Z,1.23
2019-02-10T04:17:31.018Z,1.10
2019-02-10T04:20:00.227Z,1.10
2019-02-10T04:22:29.287Z,1.73
2019-02-10T04:24:58.274Z,1.10
2019-02-10T04:27:27.330Z,1.00
2019-02-10T04:29:56.715Z,1.40
2019-02-10T04:32:25.788Z,1.40
2019-02-10T04:34:54.845Z,1.50
2019-02-10T04:37:24.234Z,1.50
2019-02-10T04:39:53.305Z,1.20
2019-02-10T04:42:22.373Z,0.80
2019-02-10T04:44:51.960Z,1.23
2019-02-10T04:47:21.083Z,1.10
2019-02-10T04:49:50.058Z,1.20
2019-02-10T04:52:19.533Z,1.10
2019-02-10T04:54:48.826Z,1.30
2019-02-10T04:57:17.863Z,1.40
2019-02-10T04:59:46.876Z,1.20
2019-02-10T05:02:16.216Z,1.90
2019-02-10T05:04:45.639Z,1.07
2019-02-10T05:07:15.219Z,1.00
2019-02-10T05:09:44.306Z,1.03
2019-02-10T05:12:13.442Z,1.07
2019-02-10T05:14:42.503Z,1.17
2019-02-10T05:17:11.551Z,1.43
2019-02-10T05:19:40.589Z,1.10
2019-02-10T05:22:09.700Z,0.97
2019-02-10T05:24:38.775Z,1.10
2019-02-10T05:27:07.833Z,1.27
2019-02-10T05:29:37.778Z,1.00
2019-02-10T05:32:06.755Z,1.10
2019-02-10T05:34:35.728Z,1.27
2019-02-10T05:37:04.853Z,1.03
2019-02-10T05:39:33.883Z,1.30
2019-02-10T05:42:02.937Z,1.50
2019-02-10T05:44:32.174Z,1.13
2019-02-10T05:47:01.219Z,1.33
2019-02-10T05:49:30.236Z,1.00
2019-02-10T05:51:59.504Z,1.50
2019-02-10T05:54:28.566Z,1.40
2019-02-10T05:56:57.630Z,1.93
2019-02-10T05:59:26.640Z,1.10
2019-02-10T06:02:04.870Z,1.30
2019-02-10T06:04:37.124Z,1.20
2019-02-10T06:07:10.478Z,1.10
2019-02-10T06:09:39.515Z,1.30
2019-02-10T06:12:08.601Z,1.17
2019-02-10T06:14:37.658Z,1.13
2019-02-10T06:17:06.703Z,1.23
2019-02-10T06:19:35.797Z,1.00
2019-02-10T06:22:04.767Z,0.77
2019-02-10T06:24:33.737Z,0.83
2019-02-10T06:27:03.047Z,0.80
2019-02-10T06:29:32.435Z,0.70
2019-02-10T06:32:01.486Z,0.60
2019-02-10T06:34:30.637Z,0.97
2019-02-10T06:36:59.782Z,0.80
2019-02-10T06:39:28.814Z,0.70
2019-02-10T06:41:58.078Z,0.90
2019-02-10T06:44:27.098Z,1.00
2019-02-10T06:46:56.238Z,0.83
2019-02-10T06:49:25.423Z,0.60
2019-02-10T06:51:54.563Z,0.70
2019-02-10T06:54:23.606Z,0.90
2019-02-10T06:56:52.651Z,0.83
2019-02-10T06:59:29.619Z,0.80
2019-02-10T07:02:04.450Z,0.70
2019-02-10T07:04:33.642Z,0.50
2019-02-10T07:07:03.186Z,0.80
2019-02-10T07:09:32.637Z,0.70
2019-02-10T07:12:39.158Z,0.90
2019-02-10T07:15:29.029Z,0.70
2019-02-10T07:18:53.246Z,0.73
2019-02-10T07:21:23.060Z,0.80
2019-02-10T07:24:19.355Z,0.80
2019-02-10T07:26:55.757Z,0.97
2019-02-10T07:30:00.821Z,0.83
2019-02-10T07:32:34.950Z,0.83
2019-02-10T07:35:50.443Z,0.70
2019-02-10T07:38:52.506Z,0.80
2019-02-10T07:41:42.939Z,0.93
2019-02-10T07:44:46.648Z,0.60
2019-02-10T07:48:07.139Z,1.00
2019-02-10T07:51:14.526Z,0.70
2019-02-10T07:54:28.512Z,0.77
2019-02-10T07:57:46.989Z,0.80
2019-02-10T08:00:28.521Z,0.60
2019-02-10T08:03:26.562Z,0.60
2019-02-10T08:06:45.971Z,0.60
2019-02-10T08:09:55.430Z,0.90
2019-02-10T08:12:34.413Z,0.80
2019-02-10T08:15:43.224Z,0.67
2019-02-10T08:18:46.864Z,0.67
2019-02-10T08:21:39.321Z,0.60
2019-02-10T08:24:39.444Z,0.80
2019-02-10T08:27:35.535Z,0.63
2019-02-10T08:30:43.054Z,0.70
2019-02-10T08:33:25.997Z,0.80
2019-02-10T08:36:39.303Z,0.70
2019-02-10T08:39:45.285Z,0.83
2019-02-10T08:42:44.946Z,0.73
2019-02-10T08:45:31.991Z,0.90
2019-02-10T08:48:37.643Z,0.97
2019-02-10T08:51:51.688Z,0.80
2019-02-10T08:54:20.787Z,0.77
2019-02-10T08:56:49.850Z,0.90
2019-02-10T08:59:18.915Z,0.70
2019-02-10T09:01:48.006Z,0.70
2019-02-10T09:04:17.438Z,0.70
2019-02-10T09:06:46.852Z,0.70
2019-02-10T09:09:15.900Z,0.70
2019-02-10T09:11:44.947Z,0.50
2019-02-10T09:14:14.017Z,0.40
2019-02-10T09:16:43.066Z,0.50
2019-02-10T09:19:12.449Z,0.50
2019-02-10T09:21:41.993Z,0.60
2019-02-10T09:24:11.033Z,0.70
2019-02-10T09:26:40.003Z,0.40
2019-02-10T09:29:09.070Z,0.40
2019-02-10T09:31:38.161Z,0.40
2019-02-10T09:34:07.270Z,0.40
2019-02-10T09:36:36.457Z,0.40
2019-02-10T09:39:11.005Z,0.40
2019-02-10T09:41:37.650Z,0.30
2019-02-10T09:44:07.462Z,0.50
2019-02-10T09:46:36.507Z,0.27
2019-02-10T09:49:05.544Z,0.30
2019-02-10T09:51:34.738Z,0.40
2019-02-10T09:54:03.791Z,0.30
2019-02-10T09:56:32.840Z,0.40
2019-02-10T09:59:01.899Z,0.40
2019-02-10T10:01:30.930Z,0.40
2019-02-10T10:03:59.971Z,0.30
2019-02-10T10:06:29.042Z,0.47
2019-02-10T10:08:58.850Z,0.50
2019-02-10T10:11:27.822Z,1.10
2019-02-10T10:13:57.342Z,0.67
2019-02-10T10:16:26.311Z,0.57
2019-02-10T10:18:55.341Z,0.93
2019-02-10T10:21:24.620Z,0.73
2019-02-10T10:23:53.986Z,0.40
2019-02-10T10:26:22.961Z,0.70
2019-02-10T10:28:51.938Z,0.50
2019-02-10T10:31:20.985Z,0.33
2019-02-10T10:33:50.031Z,0.50
2019-02-10T10:36:19.086Z,0.70
2019-02-10T10:38:48.130Z,0.50
2019-02-10T10:41:17.183Z,0.60
2019-02-10T10:43:46.639Z,0.70
2019-02-10T10:46:15.793Z,0.87
2019-02-10T10:48:44.893Z,0.63
2019-02-10T10:51:14.063Z,0.50
2019-02-10T10:53:43.030Z,0.60
2019-02-10T10:56:12.075Z,0.57
2019-02-10T10:58:41.143Z,0.63
2019-02-10T11:01:10.105Z,0.57
2019-02-10T11:03:39.175Z,0.47
2019-02-10T11:06:08.282Z,0.70
2019-02-10T11:08:37.698Z,0.50
2019-02-10T11:11:06.766Z,0.70
2019-02-10T11:13:36.518Z,0.60
2019-02-10T11:16:05.576Z,0.60
2019-02-10T11:18:34.622Z,0.70
2019-02-10T11:21:03.967Z,0.80
2019-02-10T11:23:33.239Z,0.53
2019-02-10T11:26:02.288Z,0.40
2019-02-10T11:28:31.394Z,0.60
2019-02-10T11:31:00.457Z,0.70
2019-02-10T11:33:29.422Z,0.70
2019-02-10T11:35:59.050Z,0.70
2019-02-10T11:38:28.353Z,0.57
2019-02-10T11:40:57.395Z,0.77
2019-02-10T11:43:27.063Z,0.77
2019-02-10T11:45:56.045Z,0.60
2019-02-10T11:48:25.042Z,0.67
2019-02-10T11:50:54.610Z,0.47
2019-02-10T11:53:23.681Z,0.60
2019-02-10T11:55:52.755Z,0.50
2019-02-10T11:58:21.829Z,0.70
2019-02-10T12:00:50.876Z,0.40
2019-02-10T12:03:19.854Z,0.60
2019-02-10T12:05:49.134Z,0.47
2019-02-10T12:08:18.825Z,0.70
2019-02-10T12:10:48.102Z,0.73
2019-02-10T12:13:17.553Z,0.63
2019-02-10T12:15:46.519Z,0.73
2019-02-10T12:18:15.499Z,0.60
2019-02-10T12:20:44.629Z,0.97
2019-02-10T12:23:13.621Z,0.60
2019-02-10T12:25:42.594Z,0.87
2019-02-10T12:28:11.691Z,0.87
2019-02-10T12:30:40.739Z,0.60
2019-02-10T12:33:09.797Z,2.20
2019-02-10T12:35:39.019Z,1.63
2019-02-10T12:38:07.985Z,3.90
2019-02-10T12:40:37.014Z,2.23
2019-02-10T12:43:06.682Z,2.20
2019-02-10T12:45:35.978Z,2.27
2019-02-10T12:48:05.274Z,2.17
2019-02-10T12:50:34.518Z,1.80
2019-02-10T12:53:03.487Z,1.90
2019-02-10T12:55:32.534Z,1.83
2019-02-10T12:58:01.830Z,2.13
2019-02-10T13:00:30.899Z,1.90
2019-02-10T13:02:59.934Z,1.70
2019-02-10T13:05:29.379Z,1.90
2019-02-10T13:07:58.631Z,1.50
2019-02-10T13:10:27.742Z,1.70
2019-02-10T13:12:58.510Z,1.93
2019-02-10T13:15:29.067Z,1.20
2019-02-10T13:17:58.334Z,1.40
2019-02-10T13:20:27.458Z,1.40
2019-02-10T13:22:56.493Z,1.40
2019-02-10T13:25:25.554Z,1.47
2019-02-10T13:27:54.691Z,1.47
2019-02-10T13:30:23.837Z,1.40
2019-02-10T13:32:53.285Z,1.40
2019-02-10T13:35:22.359Z,1.20
2019-02-10T13:37:51.418Z,1.20
2019-02-10T13:40:20.577Z,1.30
2019-02-10T13:42:50.187Z,1.20
2019-02-10T13:45:19.255Z,1.43
2019-02-10T13:47:48.238Z,1.17
2019-02-10T13:50:17.823Z,1.10
2019-02-10T13:52:46.958Z,0.90
2019-02-10T13:55:15.971Z,1.30
2019-02-10T13:57:45.471Z,1.40
2019-02-10T14:00:16.614Z,1.00
2019-02-10T14:02:45.665Z,1.10
2019-02-10T14:05:15.509Z,1.20
2019-02-10T14:07:45.828Z,0.90
2019-02-10T14:10:15.396Z,0.80
2019-02-10T14:12:44.752Z,0.80
2019-02-10T14:15:13.969Z,1.00
2019-02-10T14:17:43.097Z,0.90
2019-02-10T14:20:14.454Z,1.00
2019-02-10T14:22:43.445Z,0.97
2019-02-10T14:25:12.586Z,1.33
2019-02-10T14:27:41.873Z,1.33
2019-02-10T14:30:12.384Z,1.93
2019-02-10T14:32:41.454Z,1.00
2019-02-10T14:35:10.516Z,1.67
2019-02-10T14:37:39.566Z,1.50
2019-02-10T14:40:08.562Z,0.83
2019-02-10T14:42:38.220Z,1.30
2019-02-10T14:45:07.866Z,1.07
2019-02-10T14:47:37.055Z,0.73
2019-02-10T14:50:07.656Z,0.70
2019-02-10T14:52:36.823Z,0.80
2019-02-10T14:55:05.984Z,0.97
2019-02-10T14:57:35.202Z,1.57
2019-02-10T15:00:04.902Z,1.20
2019-02-10T15:02:34.011Z,0.83
2019-02-10T15:05:03.364Z,0.73
2019-02-10T15:07:32.656Z,0.90
2019-02-10T15:10:02.113Z,1.20
2019-02-10T15:12:31.459Z,1.10
2019-02-10T15:15:00.557Z,0.90
2019-02-10T15:17:29.896Z,0.93
2019-02-10T15:19:59.297Z,1.00
2019-02-10T15:22:28.270Z,0.87
2019-02-10T15:24:57.341Z,0.90
2019-02-10T15:27:26.466Z,0.90
2019-02-10T15:29:55.510Z,0.90
2019-02-10T15:32:24.854Z,0.83
2019-02-10T15:34:53.919Z,1.10
2019-02-10T15:37:22.993Z,0.63
2019-02-10T15:39:52.056Z,1.13
2019-02-10T15:42:21.461Z,0.80
2019-02-10T15:44:50.528Z,0.70
2019-02-10T15:47:19.570Z,0.90
2019-02-10T15:49:49.175Z,0.73
2019-02-10T15:52:18.486Z,0.77
2019-02-10T15:54:47.570Z,0.83
2019-02-10T15:57:17.341Z,0.60
2019-02-10T15:59:46.471Z,0.63
2019-02-10T16:02:15.524Z,0.70
2019-02-10T16:04:45.141Z,0.77
2019-02-10T16:07:14.196Z,0.77
2019-02-10T16:09:43.371Z,0.93
2019-02-10T16:12:13.066Z,0.67
2019-02-10T16:14:42.058Z,0.90
2019-02-10T16:17:11.126Z,0.80
2019-02-10T16:19:40.222Z,0.60
2019-02-10T16:22:09.292Z,0.60
2019-02-10T16:24:38.262Z,1.00
2019-02-10T16:27:07.675Z,1.53
2019-02-10T16:29:36.720Z,0.97
2019-02-10T16:32:05.783Z,1.00
2019-02-10T16:34:34.868Z,0.87
2019-02-10T16:37:05.049Z,1.73
2019-02-10T16:39:34.306Z,0.77
2019-02-10T16:42:03.806Z,1.07
2019-02-10T16:44:32.919Z,1.47
2019-02-10T16:47:01.985Z,0.97
2019-02-10T16:49:31.146Z,1.20
2019-02-10T16:52:00.236Z,1.03
2019-02-10T16:54:29.266Z,1.10
2019-02-10T16:56:58.706Z,0.90
2019-02-10T16:59:27.780Z,1.57
2019-02-10T17:01:56.886Z,3.93
2019-02-10T17:04:26.350Z,6.07
2019-02-10T17:06:55.405Z,4.97
2019-02-10T17:09:24.583Z,7.10
2019-02-10T17:11:54.651Z,6.03
2019-02-10T17:14:23.715Z,5.87
2019-02-10T17:16:52.702Z,5.63
2019-02-10T17:19:23.186Z,6.23
2019-02-10T17:21:52.202Z,4.93
2019-02-10T17:24:21.171Z,4.97
2019-02-10T17:26:50.253Z,5.47
2019-02-10T17:29:19.568Z,5.23
2019-02-10T17:31:48.548Z,4.90
2019-02-10T17:34:18.191Z,3.73
2019-02-10T17:36:47.313Z,3.93
2019-02-10T17:39:19.041Z,4.03
2019-02-10T17:41:48.991Z,3.30
2019-02-10T17:44:18.071Z,3.87
2019-02-10T17:46:47.118Z,3.40
2019-02-10T17:49:16.742Z,3.40
2019-02-10T17:51:45.790Z,3.00
2019-02-10T17:54:14.880Z,3.47
2019-02-10T17:56:44.087Z,2.53
2019-02-10T17:59:13.118Z,2.70
2019-02-10T18:01:42.163Z,2.73
2019-02-10T18:04:11.627Z,2.63
2019-02-10T18:06:40.603Z,2.33
2019-02-10T18:09:09.822Z,2.83
2019-02-10T18:11:39.042Z,2.17
2019-02-10T18:14:25.226Z,2.60
2019-02-10T18:17:04.261Z,2.50
2019-02-10T18:19:44.841Z,2.43
2019-02-10T18:22:32.087Z,2.43
2019-02-10T18:25:14.574Z,2.07
2019-02-10T18:28:01.639Z,2.40
2019-02-10T18:30:43.485Z,1.87
2019-02-10T18:33:30.159Z,1.90
2019-02-10T18:36:18.210Z,2.00
2019-02-10T18:38:53.437Z,1.80
2019-02-10T18:41:53.495Z,1.73
2019-02-10T18:44:40.534Z,1.67
2019-02-10T18:47:27.174Z,1.40
2019-02-10T18:50:15.266Z,1.40
2019-02-10T18:53:12.566Z,1.90
2019-02-10T18:56:06.565Z,1.20
2019-02-10T18:58:57.641Z,1.10
2019-02-10T19:01:38.187Z,1.40
2019-02-10T19:04:19.242Z,1.60
2019-02-10T19:07:06.038Z,1.30
2019-02-10T19:09:52.978Z,1.20
2019-02-10T19:12:46.158Z,1.27
2019-02-10T19:15:49.212Z,1.40
2019-02-10T19:18:37.362Z,1.27
2019-02-10T19:21:34.470Z,1.00
2019-02-10T19:24:09.855Z,1.30
2019-02-10T19:26:56.533Z,0.77
2019-02-10T19:29:43.495Z,1.13
2019-02-10T19:32:34.153Z,0.97
2019-02-10T19:35:28.336Z,1.00
2019-02-10T19:38:14.969Z,1.00
2019-02-10T19:41:03.239Z,1.17
2019-02-10T19:43:49.829Z,1.10
2019-02-10T19:46:47.534Z,0.87
2019-02-10T19:49:53.873Z,0.70
2019-02-10T19:52:32.946Z,0.97
2019-02-10T19:55:19.610Z,0.77
2019-02-10T19:58:07.878Z,0.80
2019-02-10T20:01:04.397Z,0.87
2019-02-10T20:03:40.409Z,0.83
2019-02-10T20:06:32.125Z,0.93
2019-02-10T20:09:19.085Z,0.90
2019-02-10T20:12:04.080Z,0.90
2019-02-10T20:14:43.461Z,1.20
2019-02-10T20:17:29.570Z,1.00
2019-02-10T20:20:33.110Z,1.00
2019-02-10T20:23:14.111Z,1.00
2019-02-10T20:26:02.146Z,0.90
2019-02-10T20:28:49.193Z,0.87
2019-02-10T20:31:32.335Z,0.80
2019-02-10T20:34:26.098Z,0.90
2019-02-10T20:37:12.789Z,0.70
2019-02-10T20:39:59.590Z,0.97
2019-02-10T20:42:46.906Z,0.97
2019-02-10T20:45:26.845Z,0.83
2019-02-10T20:48:14.720Z,0.83
2019-02-10T20:51:01.260Z,1.10
2019-02-10T20:53:46.190Z,0.90
2019-02-10T20:56:37.484Z,0.90
2019-02-10T20:59:20.382Z,1.00
2019-02-10T21:02:26.828Z,0.70
2019-02-10T21:05:18.148Z,0.70
2019-02-10T21:08:04.147Z,0.93
2019-02-10T21:10:58.185Z,0.93
2019-02-10T21:13:46.337Z,0.83
2019-02-10T21:16:34.550Z,1.00
2019-02-10T21:19:12.826Z,0.90
2019-02-10T21:22:12.982Z,0.87
2019-02-10T21:24:51.571Z,0.87
2019-02-10T21:27:35.954Z,0.90
2019-02-10T21:30:39.399Z,1.00
2019-02-10T21:33:16.040Z,0.90
2019-02-10T21:35:59.257Z,1.10
2019-02-10T21:38:50.457Z,0.87
2019-02-10T21:41:38.454Z,0.80
2019-02-10T21:44:26.652Z,0.87
2019-02-10T21:47:00.846Z,1.00
2019-02-10T21:49:30.681Z,0.73
2019-02-10T21:51:59.835Z,0.90
2019-02-10T21:54:28.908Z,0.73
2019-02-10T21:56:58.330Z,0.90
2019-02-10T21:59:27.385Z,0.70
2019-02-10T22:01:56.442Z,0.60
2019-02-10T22:04:25.530Z,0.70
2019-02-10T22:06:54.506Z,0.83
2019-02-10T22:09:23.466Z,0.80
2019-02-10T22:11:52.642Z,0.60
2019-02-10T22:14:22.219Z,1.03
2019-02-10T22:16:51.194Z,0.80
2019-02-10T22:19:20.893Z,0.77
2019-02-10T22:21:49.962Z,0.53
2019-02-10T22:24:19.115Z,0.90
2019-02-10T22:26:48.418Z,0.90
2019-02-10T22:29:17.466Z,0.70
2019-02-10T22:31:46.513Z,1.30
2019-02-10T22:34:15.578Z,1.07
2019-02-10T22:36:44.642Z,1.10
2019-02-10T22:39:13.674Z,0.90
2019-02-10T22:41:42.846Z,1.03
2019-02-10T22:44:11.899Z,0.93
2019-02-10T22:46:40.953Z,0.93
2019-02-10T22:49:10.122Z,0.80
2019-02-10T22:51:39.159Z,1.20
2019-02-10T22:54:08.202Z,0.80
2019-02-10T22:56:37.561Z,0.90
2019-02-10T22:59:06.619Z,1.10
2019-02-10T23:01:37.551Z,1.20
2019-02-10T23:04:07.434Z,0.90
2019-02-10T23:06:36.471Z,1.10
2019-02-10T23:09:08.153Z,1.00
2019-02-10T23:11:37.222Z,1.53
2019-02-10T23:14:06.510Z,1.07
2019-02-10T23:16:35.477Z,1.10
2019-02-10T23:19:04.580Z,1.10
2019-02-10T23:21:33.652Z,1.00
2019-02-10T23:24:02.690Z,0.90
2019-02-10T23:26:31.762Z,0.93
2019-02-10T23:29:00.738Z,1.00
2019-02-10T23:31:29.791Z,1.20
2019-02-10T23:33:58.998Z,1.10
2019-02-10T23:36:28.050Z,0.90
2019-02-10T23:38:57.106Z,0.77
2019-02-10T23:41:26.310Z,1.00
2019-02-10T23:43:55.388Z,0.87
2019-02-10T23:46:24.413Z,0.90
2019-02-10T23:48:53.494Z,0.90
2019-02-10T23:51:22.531Z,0.83
2019-02-10T23:53:51.570Z,1.17
2019-02-10T23:56:20.628Z,0.93
2019-02-10T23:58:49.667Z,0.83
